createdAt,value
2023-01-22T00:01:38.723Z,29.30
2023-01-22T00:06:44.172Z,24.40
2023-01-22T00:11:51.187Z,24.10
2023-01-22T00:16:55.357Z,24.00
2023-01-22T00:22:00.792Z,29.20
2023-01-22T00:27:04.339Z,30.30
2023-01-22T00:32:07.343Z,28.30
2023-01-22T00:37:11.292Z,26.20
2023-01-22T00:42:17.046Z,28.00
2023-01-22T00:47:22.666Z,26.70
2023-01-22T00:52:26.232Z,24.30
2023-01-22T00:57:30.303Z,31.10
2023-01-22T01:02:55.387Z,28.60
2023-01-22T01:08:00.088Z,35.30
2023-01-22T01:13:05.077Z,28.80
2023-01-22T01:18:14.747Z,24.70
2023-01-22T01:23:17.413Z,25.40
2023-01-22T01:28:20.985Z,30.20
2023-01-22T01:33:24.398Z,29.80
2023-01-22T01:38:27.040Z,24.60
2023-01-22T01:43:30.059Z,21.40
2023-01-22T01:48:43.575Z,23.50
2023-01-22T01:53:48.304Z,24.30
2023-01-22T01:58:56.563Z,20.80
2023-01-22T02:04:01.846Z,22.20
2023-01-22T02:09:04.552Z,24.20
2023-01-22T02:14:21.355Z,19.10
2023-01-22T02:19:25.034Z,24.70
2023-01-22T02:24:31.328Z,23.50
2023-01-22T02:29:34.479Z,25.10
2023-01-22T02:34:37.570Z,24.00
2023-01-22T02:39:40.443Z,23.70
2023-01-22T02:44:44.676Z,26.70
2023-01-22T02:49:47.940Z,27.70
2023-01-22T02:54:51.057Z,25.30
2023-01-22T02:59:53.891Z,22.40
2023-01-22T03:05:03.501Z,30.40
2023-01-22T03:10:06.945Z,35.10
2023-01-22T03:15:28.031Z,27.20
2023-01-22T03:20:49.354Z,26.70
2023-01-22T03:25:56.388Z,28.10
2023-01-22T03:30:59.517Z,24.70
2023-01-22T03:36:09.432Z,25.80
2023-01-22T03:41:15.945Z,30.20
2023-01-22T03:46:21.238Z,21.70
2023-01-22T03:51:25.495Z,23.40
2023-01-22T03:56:28.568Z,23.00
2023-01-22T04:01:32.340Z,26.20
2023-01-22T04:06:35.442Z,25.00
2023-01-22T04:11:38.412Z,21.00
2023-01-22T04:16:41.681Z,26.20
2023-01-22T04:21:44.479Z,24.60
2023-01-22T04:26:47.550Z,25.40
2023-01-22T04:31:50.942Z,31.30
2023-01-22T04:36:54.385Z,27.40
2023-01-22T04:41:56.617Z,20.60
2023-01-22T04:46:59.615Z,19.80
2023-01-22T04:52:02.352Z,23.90
2023-01-22T04:57:05.313Z,21.30
2023-01-22T05:02:08.638Z,19.80
2023-01-22T05:07:11.634Z,20.90
2023-01-22T05:12:14.458Z,18.60
2023-01-22T05:17:18.047Z,16.80
2023-01-22T05:22:21.113Z,15.70
2023-01-22T05:27:23.840Z,14.00
2023-01-22T05:32:27.205Z,13.80
2023-01-22T05:37:31.786Z,15.30
2023-01-22T05:42:34.763Z,14.40
2023-01-22T05:47:38.275Z,15.30
2023-01-22T05:52:41.946Z,14.30
2023-01-22T05:57:46.634Z,17.10
2023-01-22T06:02:49.836Z,13.20
2023-01-22T06:07:54.564Z,13.40
2023-01-22T06:12:57.315Z,17.90
2023-01-22T06:18:01.321Z,13.20
2023-01-22T06:23:05.667Z,12.10
2023-01-22T06:28:08.264Z,13.80
2023-01-22T06:33:10.885Z,12.70
2023-01-22T06:38:14.094Z,15.70
2023-01-22T06:43:17.275Z,14.20
2023-01-22T06:48:20.792Z,14.90
2023-01-22T06:53:27.931Z,16.90
2023-01-22T06:58:30.907Z,17.40
2023-01-22T07:03:33.875Z,19.00
2023-01-22T07:08:37.066Z,12.40
2023-01-22T07:13:39.648Z,14.50
2023-01-22T07:18:43.116Z,18.60
2023-01-22T07:23:46.335Z,18.50
2023-01-22T07:28:49.211Z,15.20
2023-01-22T07:33:51.936Z,18.00
2023-01-22T07:38:54.326Z,15.20
2023-01-22T07:43:57.465Z,12.40
2023-01-22T07:48:59.516Z,19.00
2023-01-22T07:54:01.592Z,28.60
2023-01-22T07:59:09.504Z,19.60
2023-01-22T08:04:11.985Z,18.20
2023-01-22T08:09:15.773Z,17.40
2023-01-22T08:14:18.159Z,17.30
2023-01-22T08:19:20.934Z,23.30
2023-01-22T08:24:23.407Z,20.90
2023-01-22T08:29:25.894Z,19.00
2023-01-22T08:36:13.345Z,19.20
2023-01-22T08:41:15.635Z,18.90
2023-01-22T08:46:17.684Z,24.80
2023-01-22T08:51:23.171Z,43.10
2023-01-22T08:56:26.319Z,27.30
2023-01-22T09:01:29.191Z,28.40
2023-01-22T09:06:31.888Z,35.10
2023-01-22T09:11:35.645Z,23.40
2023-01-22T09:16:40.008Z,21.60
2023-01-22T09:21:44.128Z,23.50
2023-01-22T09:26:49.355Z,25.50
2023-01-22T09:31:52.490Z,24.50
2023-01-22T09:36:57.063Z,28.90
2023-01-22T09:42:04.094Z,27.80
2023-01-22T09:47:27.118Z,27.00
2023-01-22T09:52:36.815Z,29.10
2023-01-22T09:57:53.719Z,24.60
2023-01-22T10:03:13.048Z,29.50
2023-01-22T10:08:44.785Z,28.70
2023-01-22T10:13:52.287Z,32.90
2023-01-22T10:19:04.346Z,35.00
2023-01-22T10:24:12.124Z,30.10
2023-01-22T10:29:29.663Z,25.70
2023-01-22T10:34:35.670Z,27.70
2023-01-22T10:39:41.281Z,25.70
2023-01-22T10:44:45.229Z,25.70
2023-01-22T10:50:03.432Z,22.80
2023-01-22T10:55:29.765Z,27.70
2023-01-22T11:00:50.435Z,21.00
2023-01-22T11:06:29.668Z,19.50
2023-01-22T11:11:47.656Z,30.40
2023-01-22T11:16:53.807Z,28.10
2023-01-22T11:21:59.943Z,24.70
2023-01-22T11:27:30.737Z,23.80
2023-01-22T11:33:01.765Z,27.80
2023-01-22T11:38:30.221Z,28.40
2023-01-22T11:43:33.310Z,26.30
2023-01-22T11:48:49.712Z,31.80
2023-01-22T11:54:12.890Z,29.60
2023-01-22T11:59:49.833Z,24.10
2023-01-22T12:05:15.673Z,25.60
2023-01-22T12:10:46.592Z,38.70
2023-01-22T12:16:11.363Z,34.50
2023-01-22T12:21:23.350Z,34.60
2023-01-22T12:26:46.853Z,38.80
2023-01-22T12:32:00.306Z,38.10
2023-01-22T12:37:06.544Z,36.80
2023-01-22T12:42:52.394Z,36.20
2023-01-22T12:48:11.755Z,34.30
2023-01-22T12:53:23.780Z,32.90
2023-01-22T12:58:30.136Z,40.40
2023-01-22T13:03:33.802Z,41.60
2023-01-22T13:08:41.089Z,33.50
2023-01-22T13:13:45.159Z,39.40
2023-01-22T13:18:53.892Z,36.90
2023-01-22T13:24:19.401Z,41.30
2023-01-22T13:29:28.821Z,31.50
2023-01-22T13:34:32.856Z,28.70
2023-01-22T13:39:35.743Z,30.30
2023-01-22T13:44:41.075Z,43.20
2023-01-22T13:49:43.980Z,31.50
2023-01-22T13:55:11.921Z,41.10
2023-01-22T14:00:30.667Z,38.20
2023-01-22T14:05:35.509Z,30.70
2023-01-22T14:10:42.310Z,34.00
2023-01-22T14:15:59.778Z,38.50
2023-01-22T14:21:03.432Z,30.10
2023-01-22T14:26:08.560Z,36.20
2023-01-22T14:31:12.386Z,35.40
2023-01-22T14:36:14.584Z,28.90
2023-01-22T14:41:17.133Z,33.50
2023-01-22T14:46:19.919Z,38.70
2023-01-22T14:51:24.197Z,36.10
2023-01-22T14:56:27.556Z,29.90
2023-01-22T15:01:29.805Z,32.40
2023-01-22T15:06:32.805Z,37.60
2023-01-22T15:11:35.803Z,39.00
2023-01-22T15:16:38.820Z,29.30
2023-01-22T15:21:41.379Z,38.40
2023-01-22T15:26:44.813Z,24.60
2023-01-22T15:31:48.204Z,29.80
2023-01-22T15:36:50.941Z,33.30
2023-01-22T15:41:53.066Z,40.60
2023-01-22T15:47:01.243Z,28.90
2023-01-22T15:52:04.789Z,37.20
2023-01-22T15:57:08.117Z,37.10
2023-01-22T16:02:11.752Z,34.20
2023-01-22T16:07:14.649Z,36.50
2023-01-22T16:12:18.683Z,38.00
2023-01-22T16:17:25.057Z,37.10
2023-01-22T16:22:27.668Z,37.70
2023-01-22T16:27:31.113Z,36.60
2023-01-22T16:32:35.082Z,33.90
2023-01-22T16:37:39.570Z,40.40
2023-01-22T16:42:58.697Z,32.80
2023-01-22T16:48:02.023Z,43.50
2023-01-22T16:53:05.362Z,35.20
2023-01-22T16:58:07.910Z,36.60
2023-01-22T17:03:10.704Z,37.40
2023-01-22T17:08:15.957Z,40.50
2023-01-22T17:13:18.531Z,43.40
2023-01-22T17:18:21.057Z,32.60
2023-01-22T17:23:23.899Z,35.90
2023-01-22T17:28:27.752Z,39.40
2023-01-22T17:33:30.471Z,33.70
2023-01-22T17:38:38.402Z,32.60
2023-01-22T17:43:44.293Z,36.30
2023-01-22T17:48:49.311Z,33.30
2023-01-22T17:53:54.728Z,31.40
2023-01-22T17:59:00.921Z,31.60
2023-01-22T18:04:06.881Z,37.70
2023-01-22T18:09:11.375Z,25.10
2023-01-22T18:14:21.928Z,33.20
2023-01-22T18:19:27.280Z,39.00
2023-01-22T18:24:31.603Z,34.30
2023-01-22T18:29:36.820Z,41.00
2023-01-22T18:34:41.611Z,45.20
2023-01-22T18:39:44.881Z,37.20
2023-01-22T18:44:47.812Z,39.80
2023-01-22T18:49:50.416Z,36.50
2023-01-22T18:54:53.876Z,34.40
2023-01-22T18:59:57.650Z,39.80
2023-01-22T19:05:00.652Z,37.60
2023-01-22T19:10:12.398Z,34.80
2023-01-22T19:15:15.233Z,39.20
2023-01-22T19:20:19.780Z,27.20
2023-01-22T19:25:23.424Z,29.20
2023-01-22T19:30:26.733Z,34.20
2023-01-22T19:35:29.549Z,41.20
2023-01-22T19:40:32.502Z,35.50
2023-01-22T19:45:36.763Z,30.90
2023-01-22T19:50:41.357Z,31.90
2023-01-22T19:55:44.676Z,31.60
2023-01-22T20:00:51.564Z,36.00
2023-01-22T20:05:56.342Z,33.90
2023-01-22T20:11:00.691Z,33.30
2023-01-22T20:16:07.079Z,34.30
2023-01-22T20:21:15.145Z,38.10
2023-01-22T20:26:19.951Z,31.00
2023-01-22T20:31:24.800Z,28.80
2023-01-22T20:36:29.331Z,34.90
2023-01-22T20:41:34.201Z,34.00
2023-01-22T20:46:41.321Z,37.50
2023-01-22T20:51:47.249Z,26.30
2023-01-22T20:56:50.459Z,29.40
2023-01-22T21:01:54.420Z,26.70
2023-01-22T21:06:58.490Z,33.90
2023-01-22T21:12:01.805Z,36.50
2023-01-22T21:17:06.546Z,41.30
2023-01-22T21:22:10.178Z,36.40
2023-01-22T21:27:12.983Z,31.50
2023-01-22T21:32:15.772Z,36.80
2023-01-22T21:37:18.281Z,36.50
2023-01-22T21:42:40.303Z,36.20
2023-01-22T21:47:43.358Z,35.30
2023-01-22T21:52:48.922Z,31.20
2023-01-22T21:57:52.046Z,38.50
2023-01-22T22:02:55.644Z,38.20
2023-01-22T22:07:59.612Z,34.00
2023-01-22T22:13:02.502Z,33.60
2023-01-22T22:18:04.438Z,27.60
2023-01-22T22:23:06.929Z,38.10
2023-01-22T22:28:09.094Z,38.90
2023-01-22T22:33:12.005Z,40.80
2023-01-22T22:38:14.607Z,36.30
2023-01-22T22:43:16.794Z,37.40
2023-01-22T22:48:19.444Z,35.80
2023-01-22T22:53:22.332Z,45.50
2023-01-22T22:58:24.981Z,37.80
2023-01-22T23:03:27.505Z,36.70
2023-01-22T23:08:29.764Z,44.30
2023-01-22T23:13:33.129Z,33.00
2023-01-22T23:18:36.636Z,38.50
2023-01-22T23:23:40.074Z,36.80
2023-01-22T23:28:43.268Z,36.90
2023-01-22T23:33:51.169Z,42.70
2023-01-22T23:38:55.184Z,33.90
2023-01-22T23:43:57.876Z,37.50
2023-01-22T23:49:01.609Z,43.40
2023-01-22T23:54:05.397Z,60.20
2023-01-22T23:59:10.695Z,35.80
